sensor_id;sensor_type;location;lat;lon;timestamp;P1;durP1;ratioP1;P2;durP2;ratioP2
67930;SDS011;63902;52.000;5.954;2023-04-15T00:00:38;6.85;;;3.65;;
67930;SDS011;63902;52.000;5.954;2023-04-15T00:01:39;9.65;;;4.40;;
67930;SDS011;63902;52.000;5.954;2023-04-15T00:02:39;7.43;;;4.13;;
67930;SDS011;63902;52.000;5.954;2023-04-15T00:03:40;9.02;;;4.03;;
67930;SDS011;63902;52.000;5.954;2023-04-15T00:04:40;7.85;;;3.70;;
67930;SDS011;63902;52.000;5.954;2023-04-15T00:05:41;6.18;;;3.75;;
67930;SDS011;63902;52.000;5.954;2023-04-15T00:06:41;6.68;;;3.47;;
67930;SDS011;63902;52.000;5.954;2023-04-15T00:07:41;4.90;;;3.60;;
67930;SDS011;63902;52.000;5.954;2023-04-15T00:08:42;7.05;;;3.75;;
67930;SDS011;63902;52.000;5.954;2023-04-15T00:09:42;8.05;;;4.00;;
67930;SDS011;63902;52.000;5.954;2023-04-15T00:10:43;7.25;;;4.00;;
67930;SDS011;63902;52.000;5.954;2023-04-15T00:11:43;9.80;;;3.92;;
67930;SDS011;63902;52.000;5.954;2023-04-15T00:12:44;8.52;;;3.80;;
67930;SDS011;63902;52.000;5.954;2023-04-15T00:13:45;7.38;;;3.55;;
67930;SDS011;63902;52.000;5.954;2023-04-15T00:14:46;6.10;;;3.20;;
67930;SDS011;63902;52.000;5.954;2023-04-15T00:15:47;7.57;;;3.75;;
67930;SDS011;63902;52.000;5.954;2023-04-15T00:16:47;7.43;;;3.70;;
67930;SDS011;63902;52.000;5.954;2023-04-15T00:17:49;9.35;;;3.97;;
67930;SDS011;63902;52.000;5.954;2023-04-15T00:18:50;8.05;;;3.97;;
67930;SDS011;63902;52.000;5.954;2023-04-15T00:19:50;9.48;;;3.53;;
67930;SDS011;63902;52.000;5.954;2023-04-15T00:20:51;7.75;;;3.75;;
67930;SDS011;63902;52.000;5.954;2023-04-15T00:21:51;7.93;;;3.72;;
67930;SDS011;63902;52.000;5.954;2023-04-15T00:22:52;8.82;;;4.00;;
67930;SDS011;63902;52.000;5.954;2023-04-15T00:23:52;12.23;;;4.18;;
67930;SDS011;63902;52.000;5.954;2023-04-15T00:24:53;7.82;;;3.97;;
67930;SDS011;63902;52.000;5.954;2023-04-15T00:25:53;7.93;;;3.95;;
67930;SDS011;63902;52.000;5.954;2023-04-15T00:26:54;7.55;;;3.88;;
67930;SDS011;63902;52.000;5.954;2023-04-15T00:27:54;9.13;;;4.20;;
67930;SDS011;63902;52.000;5.954;2023-04-15T00:28:55;6.95;;;3.60;;
67930;SDS011;63902;52.000;5.954;2023-04-15T00:29:56;9.50;;;3.45;;
67930;SDS011;63902;52.000;5.954;2023-04-15T00:30:57;12.13;;;3.85;;
67930;SDS011;63902;52.000;5.954;2023-04-15T00:31:57;8.02;;;3.88;;
67930;SDS011;63902;52.000;5.954;2023-04-15T00:32:58;6.68;;;3.70;;
67930;SDS011;63902;52.000;5.954;2023-04-15T00:33:58;10.43;;;4.18;;
67930;SDS011;63902;52.000;5.954;2023-04-15T00:34:59;6.50;;;3.88;;
67930;SDS011;63902;52.000;5.954;2023-04-15T00:35:59;8.38;;;3.78;;
67930;SDS011;63902;52.000;5.954;2023-04-15T00:37:00;7.72;;;3.63;;
67930;SDS011;63902;52.000;5.954;2023-04-15T00:38:00;8.10;;;3.80;;
67930;SDS011;63902;52.000;5.954;2023-04-15T00:39:01;9.00;;;3.88;;
67930;SDS011;63902;52.000;5.954;2023-04-15T00:40:01;6.38;;;3.80;;
67930;SDS011;63902;52.000;5.954;2023-04-15T00:41:02;10.50;;;3.78;;
67930;SDS011;63902;52.000;5.954;2023-04-15T00:42:03;8.15;;;3.42;;
67930;SDS011;63902;52.000;5.954;2023-04-15T00:43:04;7.00;;;4.22;;
67930;SDS011;63902;52.000;5.954;2023-04-15T00:44:05;8.38;;;4.00;;
67930;SDS011;63902;52.000;5.954;2023-04-15T00:45:07;12.40;;;4.30;;
67930;SDS011;63902;52.000;5.954;2023-04-15T00:46:08;9.88;;;3.78;;
67930;SDS011;63902;52.000;5.954;2023-04-15T00:47:11;7.40;;;4.28;;
67930;SDS011;63902;52.000;5.954;2023-04-15T00:48:13;8.52;;;4.00;;
67930;SDS011;63902;52.000;5.954;2023-04-15T00:49:15;7.50;;;4.22;;
67930;SDS011;63902;52.000;5.954;2023-04-15T00:50:15;5.55;;;3.45;;
67930;SDS011;63902;52.000;5.954;2023-04-15T00:51:16;8.82;;;4.10;;
67930;SDS011;63902;52.000;5.954;2023-04-15T00:52:16;7.63;;;4.20;;
67930;SDS011;63902;52.000;5.954;2023-04-15T00:53:17;10.23;;;4.18;;
67930;SDS011;63902;52.000;5.954;2023-04-15T00:54:17;9.38;;;3.95;;
67930;SDS011;63902;52.000;5.954;2023-04-15T00:55:17;7.22;;;4.13;;
67930;SDS011;63902;52.000;5.954;2023-04-15T00:56:18;8.68;;;4.13;;
67930;SDS011;63902;52.000;5.954;2023-04-15T00:57:20;7.50;;;3.90;;
67930;SDS011;63902;52.000;5.954;2023-04-15T00:58:21;6.50;;;4.03;;
67930;SDS011;63902;52.000;5.954;2023-04-15T00:59:22;7.63;;;3.92;;
67930;SDS011;63902;52.000;5.954;2023-04-15T01:00:24;7.88;;;4.00;;
67930;SDS011;63902;52.000;5.954;2023-04-15T01:01:25;6.00;;;3.83;;
67930;SDS011;63902;52.000;5.954;2023-04-15T01:02:26;6.78;;;3.85;;
67930;SDS011;63902;52.000;5.954;2023-04-15T01:03:26;9.93;;;4.38;;
67930;SDS011;63902;52.000;5.954;2023-04-15T01:04:28;13.25;;;4.60;;
67930;SDS011;63902;52.000;5.954;2023-04-15T01:05:29;6.00;;;3.70;;
67930;SDS011;63902;52.000;5.954;2023-04-15T01:06:30;8.32;;;4.60;;
67930;SDS011;63902;52.000;5.954;2023-04-15T01:07:30;10.63;;;4.22;;
67930;SDS011;63902;52.000;5.954;2023-04-15T01:08:31;8.20;;;4.13;;
67930;SDS011;63902;52.000;5.954;2023-04-15T01:09:32;6.22;;;4.00;;
67930;SDS011;63902;52.000;5.954;2023-04-15T01:10:32;6.82;;;4.38;;
67930;SDS011;63902;52.000;5.954;2023-04-15T01:11:33;8.77;;;4.68;;
67930;SDS011;63902;52.000;5.954;2023-04-15T01:12:34;7.20;;;4.55;;
67930;SDS011;63902;52.000;5.954;2023-04-15T01:13:35;7.20;;;4.00;;
67930;SDS011;63902;52.000;5.954;2023-04-15T01:14:36;8.13;;;4.65;;
67930;SDS011;63902;52.000;5.954;2023-04-15T01:15:38;6.95;;;3.80;;
67930;SDS011;63902;52.000;5.954;2023-04-15T01:16:39;5.95;;;3.88;;
67930;SDS011;63902;52.000;5.954;2023-04-15T01:17:39;7.38;;;4.25;;
67930;SDS011;63902;52.000;5.954;2023-04-15T01:18:40;8.00;;;4.10;;
67930;SDS011;63902;52.000;5.954;2023-04-15T01:19:40;7.43;;;3.92;;
67930;SDS011;63902;52.000;5.954;2023-04-15T01:20:41;9.98;;;4.22;;
67930;SDS011;63902;52.000;5.954;2023-04-15T01:21:41;5.13;;;3.80;;
67930;SDS011;63902;52.000;5.954;2023-04-15T01:22:42;9.18;;;3.72;;
67930;SDS011;63902;52.000;5.954;2023-04-15T01:23:43;5.85;;;3.63;;
67930;SDS011;63902;52.000;5.954;2023-04-15T01:24:49;5.18;;;3.38;;
67930;SDS011;63902;52.000;5.954;2023-04-15T01:26:00;5.53;;;3.35;;
67930;SDS011;63902;52.000;5.954;2023-04-15T01:27:01;6.38;;;3.75;;
67930;SDS011;63902;52.000;5.954;2023-04-15T01:28:01;7.50;;;4.07;;
67930;SDS011;63902;52.000;5.954;2023-04-15T01:29:02;6.90;;;3.95;;
67930;SDS011;63902;52.000;5.954;2023-04-15T01:30:03;5.10;;;3.85;;
67930;SDS011;63902;52.000;5.954;2023-04-15T01:31:05;8.77;;;4.05;;
67930;SDS011;63902;52.000;5.954;2023-04-15T01:32:06;7.13;;;4.43;;
67930;SDS011;63902;52.000;5.954;2023-04-15T01:33:06;7.55;;;3.85;;
67930;SDS011;63902;52.000;5.954;2023-04-15T01:34:07;6.68;;;3.90;;
67930;SDS011;63902;52.000;5.954;2023-04-15T01:35:07;7.63;;;4.03;;
67930;SDS011;63902;52.000;5.954;2023-04-15T01:36:09;11.18;;;4.22;;
67930;SDS011;63902;52.000;5.954;2023-04-15T01:37:09;8.32;;;4.05;;
67930;SDS011;63902;52.000;5.954;2023-04-15T01:38:10;9.27;;;4.05;;
67930;SDS011;63902;52.000;5.954;2023-04-15T01:39:11;5.82;;;3.92;;
67930;SDS011;63902;52.000;5.954;2023-04-15T01:40:11;5.22;;;3.70;;
67930;SDS011;63902;52.000;5.954;2023-04-15T01:41:13;9.88;;;4.00;;
67930;SDS011;63902;52.000;5.954;2023-04-15T01:42:14;5.55;;;3.67;;
67930;SDS011;63902;52.000;5.954;2023-04-15T01:43:14;8.38;;;4.65;;
67930;SDS011;63902;52.000;5.954;2023-04-15T01:44:15;7.35;;;4.28;;
67930;SDS011;63902;52.000;5.954;2023-04-15T01:45:15;6.28;;;3.78;;
67930;SDS011;63902;52.000;5.954;2023-04-15T01:46:16;6.03;;;4.05;;
67930;SDS011;63902;52.000;5.954;2023-04-15T01:47:16;8.00;;;4.50;;
67930;SDS011;63902;52.000;5.954;2023-04-15T01:48:17;9.10;;;4.35;;
67930;SDS011;63902;52.000;5.954;2023-04-15T01:49:17;9.18;;;4.63;;
67930;SDS011;63902;52.000;5.954;2023-04-15T01:50:18;9.13;;;4.88;;
67930;SDS011;63902;52.000;5.954;2023-04-15T01:51:18;6.57;;;4.15;;
67930;SDS011;63902;52.000;5.954;2023-04-15T01:52:19;8.82;;;4.28;;
67930;SDS011;63902;52.000;5.954;2023-04-15T01:53:19;10.10;;;4.38;;
67930;SDS011;63902;52.000;5.954;2023-04-15T01:54:20;8.23;;;4.30;;
67930;SDS011;63902;52.000;5.954;2023-04-15T01:55:20;5.97;;;4.13;;
67930;SDS011;63902;52.000;5.954;2023-04-15T01:56:22;4.80;;;3.88;;
67930;SDS011;63902;52.000;5.954;2023-04-15T01:57:23;5.32;;;3.60;;
67930;SDS011;63902;52.000;5.954;2023-04-15T01:58:23;7.97;;;4.57;;
67930;SDS011;63902;52.000;5.954;2023-04-15T01:59:24;6.28;;;3.78;;
67930;SDS011;63902;52.000;5.954;2023-04-15T02:00:24;6.47;;;3.95;;
67930;SDS011;63902;52.000;5.954;2023-04-15T02:01:25;7.28;;;3.78;;
67930;SDS011;63902;52.000;5.954;2023-04-15T02:02:25;7.63;;;4.75;;
67930;SDS011;63902;52.000;5.954;2023-04-15T02:03:25;7.30;;;4.05;;
67930;SDS011;63902;52.000;5.954;2023-04-15T02:04:27;7.38;;;4.25;;
67930;SDS011;63902;52.000;5.954;2023-04-15T02:05:28;14.18;;;5.03;;
67930;SDS011;63902;52.000;5.954;2023-04-15T02:06:28;9.18;;;4.82;;
67930;SDS011;63902;52.000;5.954;2023-04-15T02:07:29;9.07;;;4.20;;
67930;SDS011;63902;52.000;5.954;2023-04-15T02:08:29;7.43;;;3.92;;
67930;SDS011;63902;52.000;5.954;2023-04-15T02:09:30;7.22;;;4.10;;
67930;SDS011;63902;52.000;5.954;2023-04-15T02:10:30;6.50;;;4.38;;
67930;SDS011;63902;52.000;5.954;2023-04-15T02:11:32;12.05;;;4.00;;
67930;SDS011;63902;52.000;5.954;2023-04-15T02:12:32;8.18;;;4.40;;
67930;SDS011;63902;52.000;5.954;2023-04-15T02:13:33;6.10;;;4.30;;
67930;SDS011;63902;52.000;5.954;2023-04-15T02:14:33;8.20;;;4.15;;
67930;SDS011;63902;52.000;5.954;2023-04-15T02:15:34;7.10;;;4.10;;
67930;SDS011;63902;52.000;5.954;2023-04-15T02:16:34;6.00;;;3.60;;
67930;SDS011;63902;52.000;5.954;2023-04-15T02:17:35;6.28;;;4.28;;
67930;SDS011;63902;52.000;5.954;2023-04-15T02:18:36;8.57;;;4.18;;
67930;SDS011;63902;52.000;5.954;2023-04-15T02:19:36;6.35;;;4.18;;
67930;SDS011;63902;52.000;5.954;2023-04-15T02:20:37;11.10;;;4.40;;
67930;SDS011;63902;52.000;5.954;2023-04-15T02:21:37;7.82;;;4.85;;
67930;SDS011;63902;52.000;5.954;2023-04-15T02:22:37;6.55;;;4.10;;
67930;SDS011;63902;52.000;5.954;2023-04-15T02:23:38;7.57;;;4.10;;
67930;SDS011;63902;52.000;5.954;2023-04-15T02:24:38;8.40;;;4.03;;
67930;SDS011;63902;52.000;5.954;2023-04-15T02:25:39;6.00;;;4.10;;
67930;SDS011;63902;52.000;5.954;2023-04-15T02:26:41;5.75;;;4.30;;
67930;SDS011;63902;52.000;5.954;2023-04-15T02:27:41;8.20;;;3.47;;
67930;SDS011;63902;52.000;5.954;2023-04-15T02:28:42;7.53;;;4.50;;
67930;SDS011;63902;52.000;5.954;2023-04-15T02:29:42;10.68;;;4.47;;
67930;SDS011;63902;52.000;5.954;2023-04-15T02:30:46;6.65;;;4.40;;
67930;SDS011;63902;52.000;5.954;2023-04-15T02:31:46;7.90;;;3.90;;
67930;SDS011;63902;52.000;5.954;2023-04-15T02:32:47;10.80;;;4.40;;
67930;SDS011;63902;52.000;5.954;2023-04-15T02:33:47;9.15;;;4.28;;
67930;SDS011;63902;52.000;5.954;2023-04-15T02:34:48;6.85;;;4.03;;
67930;SDS011;63902;52.000;5.954;2023-04-15T02:35:48;6.43;;;4.40;;
67930;SDS011;63902;52.000;5.954;2023-04-15T02:36:49;8.35;;;4.10;;
67930;SDS011;63902;52.000;5.954;2023-04-15T02:37:49;7.75;;;4.20;;
67930;SDS011;63902;52.000;5.954;2023-04-15T02:38:50;6.72;;;4.22;;
67930;SDS011;63902;52.000;5.954;2023-04-15T02:39:50;7.00;;;4.38;;
67930;SDS011;63902;52.000;5.954;2023-04-15T02:40:51;7.20;;;4.47;;
67930;SDS011;63902;52.000;5.954;2023-04-15T02:41:52;6.68;;;4.65;;
67930;SDS011;63902;52.000;5.954;2023-04-15T02:42:53;8.13;;;4.20;;
67930;SDS011;63902;52.000;5.954;2023-04-15T02:43:53;6.15;;;4.13;;
67930;SDS011;63902;52.000;5.954;2023-04-15T02:44:54;6.35;;;4.38;;
67930;SDS011;63902;52.000;5.954;2023-04-15T02:45:55;5.88;;;4.43;;
67930;SDS011;63902;52.000;5.954;2023-04-15T02:46:55;6.30;;;4.22;;
67930;SDS011;63902;52.000;5.954;2023-04-15T02:47:56;7.05;;;4.55;;
67930;SDS011;63902;52.000;5.954;2023-04-15T02:48:56;7.43;;;4.38;;
67930;SDS011;63902;52.000;5.954;2023-04-15T02:49:56;10.07;;;5.18;;
67930;SDS011;63902;52.000;5.954;2023-04-15T02:51:09;11.25;;;4.28;;
67930;SDS011;63902;52.000;5.954;2023-04-15T02:52:11;8.13;;;4.60;;
67930;SDS011;63902;52.000;5.954;2023-04-15T02:53:11;7.85;;;4.50;;
67930;SDS011;63902;52.000;5.954;2023-04-15T02:54:11;6.25;;;3.95;;
67930;SDS011;63902;52.000;5.954;2023-04-15T02:55:12;8.13;;;4.60;;
67930;SDS011;63902;52.000;5.954;2023-04-15T02:56:12;9.30;;;4.32;;
67930;SDS011;63902;52.000;5.954;2023-04-15T02:57:14;6.22;;;4.35;;
67930;SDS011;63902;52.000;5.954;2023-04-15T02:58:15;7.35;;;4.47;;
67930;SDS011;63902;52.000;5.954;2023-04-15T02:59:15;7.43;;;4.57;;
67930;SDS011;63902;52.000;5.954;2023-04-15T03:00:16;8.55;;;4.00;;
67930;SDS011;63902;52.000;5.954;2023-04-15T03:01:16;8.90;;;5.03;;
67930;SDS011;63902;52.000;5.954;2023-04-15T03:02:17;5.30;;;4.30;;
67930;SDS011;63902;52.000;5.954;2023-04-15T03:03:17;10.20;;;4.70;;
67930;SDS011;63902;52.000;5.954;2023-04-15T03:04:18;8.77;;;4.78;;
67930;SDS011;63902;52.000;5.954;2023-04-15T03:05:18;7.63;;;4.68;;
67930;SDS011;63902;52.000;5.954;2023-04-15T03:06:19;9.35;;;4.35;;
67930;SDS011;63902;52.000;5.954;2023-04-15T03:07:19;8.68;;;4.45;;
67930;SDS011;63902;52.000;5.954;2023-04-15T03:08:20;8.25;;;4.70;;
67930;SDS011;63902;52.000;5.954;2023-04-15T03:09:20;8.40;;;4.68;;
67930;SDS011;63902;52.000;5.954;2023-04-15T03:10:21;7.80;;;4.97;;
67930;SDS011;63902;52.000;5.954;2023-04-15T03:11:21;10.38;;;5.30;;
67930;SDS011;63902;52.000;5.954;2023-04-15T03:12:23;10.45;;;5.13;;
67930;SDS011;63902;52.000;5.954;2023-04-15T03:13:24;11.02;;;4.88;;
67930;SDS011;63902;52.000;5.954;2023-04-15T03:14:24;8.98;;;4.90;;
67930;SDS011;63902;52.000;5.954;2023-04-15T03:15:24;8.40;;;4.78;;
67930;SDS011;63902;52.000;5.954;2023-04-15T03:16:25;11.38;;;5.47;;
67930;SDS011;63902;52.000;5.954;2023-04-15T03:17:25;9.65;;;4.80;;
67930;SDS011;63902;52.000;5.954;2023-04-15T03:18:26;7.13;;;5.13;;
67930;SDS011;63902;52.000;5.954;2023-04-15T03:19:26;8.07;;;4.65;;
67930;SDS011;63902;52.000;5.954;2023-04-15T03:20:27;8.45;;;4.82;;
67930;SDS011;63902;52.000;5.954;2023-04-15T03:21:27;8.90;;;5.32;;
67930;SDS011;63902;52.000;5.954;2023-04-15T03:22:28;7.80;;;5.28;;
67930;SDS011;63902;52.000;5.954;2023-04-15T03:23:29;9.07;;;5.00;;
67930;SDS011;63902;52.000;5.954;2023-04-15T03:24:30;7.03;;;4.72;;
67930;SDS011;63902;52.000;5.954;2023-04-15T03:25:31;9.02;;;4.95;;
67930;SDS011;63902;52.000;5.954;2023-04-15T03:26:31;10.70;;;4.97;;
67930;SDS011;63902;52.000;5.954;2023-04-15T03:27:33;7.22;;;4.65;;
67930;SDS011;63902;52.000;5.954;2023-04-15T03:28:33;9.55;;;5.28;;
67930;SDS011;63902;52.000;5.954;2023-04-15T03:29:34;7.70;;;5.25;;
67930;SDS011;63902;52.000;5.954;2023-04-15T03:30:34;9.50;;;4.95;;
67930;SDS011;63902;52.000;5.954;2023-04-15T03:31:35;9.48;;;5.38;;
67930;SDS011;63902;52.000;5.954;2023-04-15T03:32:35;7.93;;;5.18;;
67930;SDS011;63902;52.000;5.954;2023-04-15T03:33:36;9.20;;;5.65;;
67930;SDS011;63902;52.000;5.954;2023-04-15T03:34:36;10.45;;;5.13;;
67930;SDS011;63902;52.000;5.954;2023-04-15T03:35:37;7.53;;;5.22;;
67930;SDS011;63902;52.000;5.954;2023-04-15T03:36:37;8.25;;;5.15;;
67930;SDS011;63902;52.000;5.954;2023-04-15T03:37:38;11.00;;;5.43;;
67930;SDS011;63902;52.000;5.954;2023-04-15T03:38:38;8.75;;;5.43;;
67930;SDS011;63902;52.000;5.954;2023-04-15T03:39:39;12.02;;;4.97;;
67930;SDS011;63902;52.000;5.954;2023-04-15T03:40:39;9.98;;;5.22;;
67930;SDS011;63902;52.000;5.954;2023-04-15T03:41:40;9.90;;;5.18;;
67930;SDS011;63902;52.000;5.954;2023-04-15T03:42:42;8.40;;;5.10;;
67930;SDS011;63902;52.000;5.954;2023-04-15T03:43:42;8.82;;;5.13;;
67930;SDS011;63902;52.000;5.954;2023-04-15T03:44:43;8.40;;;5.22;;
67930;SDS011;63902;52.000;5.954;2023-04-15T03:45:43;12.52;;;5.20;;
67930;SDS011;63902;52.000;5.954;2023-04-15T03:46:44;7.70;;;5.00;;
67930;SDS011;63902;52.000;5.954;2023-04-15T03:47:44;10.02;;;5.45;;
67930;SDS011;63902;52.000;5.954;2023-04-15T03:48:45;8.95;;;5.30;;
67930;SDS011;63902;52.000;5.954;2023-04-15T03:49:46;7.50;;;5.53;;
67930;SDS011;63902;52.000;5.954;2023-04-15T03:50:46;11.48;;;4.90;;
67930;SDS011;63902;52.000;5.954;2023-04-15T03:51:46;10.10;;;5.18;;
67930;SDS011;63902;52.000;5.954;2023-04-15T03:52:47;7.38;;;5.32;;
67930;SDS011;63902;52.000;5.954;2023-04-15T03:53:47;9.82;;;5.13;;
67930;SDS011;63902;52.000;5.954;2023-04-15T03:54:48;9.15;;;6.13;;
67930;SDS011;63902;52.000;5.954;2023-04-15T03:55:48;9.05;;;5.25;;
67930;SDS011;63902;52.000;5.954;2023-04-15T03:56:49;10.18;;;5.45;;
67930;SDS011;63902;52.000;5.954;2023-04-15T03:57:51;8.65;;;5.20;;
67930;SDS011;63902;52.000;5.954;2023-04-15T03:58:51;11.18;;;5.60;;
67930;SDS011;63902;52.000;5.954;2023-04-15T03:59:52;10.25;;;4.78;;
67930;SDS011;63902;52.000;5.954;2023-04-15T04:00:52;10.50;;;5.32;;
67930;SDS011;63902;52.000;5.954;2023-04-15T04:01:52;15.90;;;5.07;;
67930;SDS011;63902;52.000;5.954;2023-04-15T04:02:53;7.68;;;5.43;;
67930;SDS011;63902;52.000;5.954;2023-04-15T04:03:53;10.35;;;5.25;;
67930;SDS011;63902;52.000;5.954;2023-04-15T04:04:54;11.68;;;5.28;;
67930;SDS011;63902;52.000;5.954;2023-04-15T04:05:54;8.32;;;5.43;;
67930;SDS011;63902;52.000;5.954;2023-04-15T04:06:55;11.27;;;5.50;;
67930;SDS011;63902;52.000;5.954;2023-04-15T04:07:55;7.88;;;4.85;;
67930;SDS011;63902;52.000;5.954;2023-04-15T04:08:56;12.80;;;5.45;;
67930;SDS011;63902;52.000;5.954;2023-04-15T04:09:56;10.10;;;5.55;;
67930;SDS011;63902;52.000;5.954;2023-04-15T04:10:57;10.95;;;5.85;;
67930;SDS011;63902;52.000;5.954;2023-04-15T04:11:57;9.32;;;4.75;;
67930;SDS011;63902;52.000;5.954;2023-04-15T04:12:59;7.70;;;5.28;;
67930;SDS011;63902;52.000;5.954;2023-04-15T04:14:00;8.80;;;5.40;;
67930;SDS011;63902;52.000;5.954;2023-04-15T04:15:00;9.85;;;5.95;;
67930;SDS011;63902;52.000;5.954;2023-04-15T04:16:01;7.82;;;5.22;;
67930;SDS011;63902;52.000;5.954;2023-04-15T04:17:01;13.20;;;5.85;;
67930;SDS011;63902;52.000;5.954;2023-04-15T04:18:02;9.93;;;5.70;;
67930;SDS011;63902;52.000;5.954;2023-04-15T04:19:02;7.93;;;5.38;;
67930;SDS011;63902;52.000;5.954;2023-04-15T04:20:03;9.75;;;5.55;;
67930;SDS011;63902;52.000;5.954;2023-04-15T04:21:04;9.30;;;6.15;;
67930;SDS011;63902;52.000;5.954;2023-04-15T04:22:05;9.00;;;5.90;;
67930;SDS011;63902;52.000;5.954;2023-04-15T04:23:06;10.23;;;5.50;;
67930;SDS011;63902;52.000;5.954;2023-04-15T04:24:06;7.88;;;5.20;;
67930;SDS011;63902;52.000;5.954;2023-04-15T04:25:07;8.65;;;5.70;;
67930;SDS011;63902;52.000;5.954;2023-04-15T04:26:08;10.13;;;5.68;;
67930;SDS011;63902;52.000;5.954;2023-04-15T04:27:09;8.07;;;5.40;;
67930;SDS011;63902;52.000;5.954;2023-04-15T04:28:11;6.93;;;5.40;;
67930;SDS011;63902;52.000;5.954;2023-04-15T04:29:11;10.00;;;6.10;;
67930;SDS011;63902;52.000;5.954;2023-04-15T04:30:12;10.45;;;6.38;;
67930;SDS011;63902;52.000;5.954;2023-04-15T04:31:12;9.13;;;5.22;;
67930;SDS011;63902;52.000;5.954;2023-04-15T04:32:13;12.75;;;5.68;;
67930;SDS011;63902;52.000;5.954;2023-04-15T04:33:13;13.32;;;5.65;;
67930;SDS011;63902;52.000;5.954;2023-04-15T04:34:13;10.85;;;6.38;;
67930;SDS011;63902;52.000;5.954;2023-04-15T04:35:14;10.77;;;5.95;;
67930;SDS011;63902;52.000;5.954;2023-04-15T04:36:14;9.55;;;6.47;;
67930;SDS011;63902;52.000;5.954;2023-04-15T04:37:15;11.60;;;6.82;;
67930;SDS011;63902;52.000;5.954;2023-04-15T04:38:15;8.85;;;6.25;;
67930;SDS011;63902;52.000;5.954;2023-04-15T04:39:16;8.43;;;5.72;;
67930;SDS011;63902;52.000;5.954;2023-04-15T04:40:16;9.90;;;6.32;;
67930;SDS011;63902;52.000;5.954;2023-04-15T04:41:17;10.90;;;6.28;;
67930;SDS011;63902;52.000;5.954;2023-04-15T04:42:17;9.75;;;6.53;;
67930;SDS011;63902;52.000;5.954;2023-04-15T04:43:19;9.55;;;6.38;;
67930;SDS011;63902;52.000;5.954;2023-04-15T04:44:20;11.38;;;5.63;;
67930;SDS011;63902;52.000;5.954;2023-04-15T04:45:20;10.35;;;5.68;;
67930;SDS011;63902;52.000;5.954;2023-04-15T04:46:20;9.95;;;5.90;;
67930;SDS011;63902;52.000;5.954;2023-04-15T04:47:21;8.77;;;5.82;;
67930;SDS011;63902;52.000;5.954;2023-04-15T04:48:22;16.77;;;6.75;;
67930;SDS011;63902;52.000;5.954;2023-04-15T04:49:22;12.77;;;6.22;;
67930;SDS011;63902;52.000;5.954;2023-04-15T04:50:22;12.38;;;6.63;;
67930;SDS011;63902;52.000;5.954;2023-04-15T04:51:23;9.85;;;5.75;;
67930;SDS011;63902;52.000;5.954;2023-04-15T04:52:24;12.02;;;6.70;;
67930;SDS011;63902;52.000;5.954;2023-04-15T04:53:24;10.32;;;5.68;;
67930;SDS011;63902;52.000;5.954;2023-04-15T04:54:25;9.27;;;5.82;;
67930;SDS011;63902;52.000;5.954;2023-04-15T04:55:25;9.63;;;5.80;;
67930;SDS011;63902;52.000;5.954;2023-04-15T04:56:26;8.80;;;5.28;;
67930;SDS011;63902;52.000;5.954;2023-04-15T04:57:26;11.80;;;6.93;;
67930;SDS011;63902;52.000;5.954;2023-04-15T04:58:28;9.48;;;5.93;;
67930;SDS011;63902;52.000;5.954;2023-04-15T04:59:28;12.98;;;6.60;;
67930;SDS011;63902;52.000;5.954;2023-04-15T05:00:29;17.38;;;6.38;;
67930;SDS011;63902;52.000;5.954;2023-04-15T05:01:29;10.68;;;6.53;;
67930;SDS011;63902;52.000;5.954;2023-04-15T05:02:30;8.70;;;5.95;;
67930;SDS011;63902;52.000;5.954;2023-04-15T05:03:30;9.80;;;6.38;;
67930;SDS011;63902;52.000;5.954;2023-04-15T05:04:31;12.45;;;6.32;;
67930;SDS011;63902;52.000;5.954;2023-04-15T05:05:31;10.88;;;6.13;;
67930;SDS011;63902;52.000;5.954;2023-04-15T05:06:32;10.80;;;6.25;;
67930;SDS011;63902;52.000;5.954;2023-04-15T05:07:33;11.13;;;6.18;;
67930;SDS011;63902;52.000;5.954;2023-04-15T05:08:33;11.57;;;5.68;;
67930;SDS011;63902;52.000;5.954;2023-04-15T05:09:34;11.15;;;6.05;;
67930;SDS011;63902;52.000;5.954;2023-04-15T05:10:34;9.75;;;6.05;;
67930;SDS011;63902;52.000;5.954;2023-04-15T05:11:35;11.63;;;6.10;;
67930;SDS011;63902;52.000;5.954;2023-04-15T05:12:35;11.15;;;6.43;;
67930;SDS011;63902;52.000;5.954;2023-04-15T05:13:37;8.10;;;6.32;;
67930;SDS011;63902;52.000;5.954;2023-04-15T05:14:38;14.07;;;6.95;;
67930;SDS011;63902;52.000;5.954;2023-04-15T05:15:38;11.48;;;6.88;;
67930;SDS011;63902;52.000;5.954;2023-04-15T05:16:38;11.95;;;7.35;;
67930;SDS011;63902;52.000;5.954;2023-04-15T05:17:39;9.60;;;6.30;;
67930;SDS011;63902;52.000;5.954;2023-04-15T05:18:39;7.88;;;6.03;;
67930;SDS011;63902;52.000;5.954;2023-04-15T05:19:40;10.15;;;6.40;;
67930;SDS011;63902;52.000;5.954;2023-04-15T05:20:40;9.95;;;6.30;;
67930;SDS011;63902;52.000;5.954;2023-04-15T05:21:41;9.60;;;5.80;;
67930;SDS011;63902;52.000;5.954;2023-04-15T05:22:42;10.85;;;6.68;;
67930;SDS011;63902;52.000;5.954;2023-04-15T05:23:42;10.48;;;6.50;;
67930;SDS011;63902;52.000;5.954;2023-04-15T05:24:43;11.05;;;6.32;;
67930;SDS011;63902;52.000;5.954;2023-04-15T05:25:43;10.02;;;6.25;;
67930;SDS011;63902;52.000;5.954;2023-04-15T05:26:44;10.10;;;6.78;;
67930;SDS011;63902;52.000;5.954;2023-04-15T05:27:44;9.93;;;6.07;;
67930;SDS011;63902;52.000;5.954;2023-04-15T05:28:46;10.18;;;6.13;;
67930;SDS011;63902;52.000;5.954;2023-04-15T05:29:47;14.35;;;7.20;;
67930;SDS011;63902;52.000;5.954;2023-04-15T05:30:47;10.43;;;6.20;;
67930;SDS011;63902;52.000;5.954;2023-04-15T05:31:48;9.77;;;6.03;;
67930;SDS011;63902;52.000;5.954;2023-04-15T05:32:48;13.82;;;7.22;;
67930;SDS011;63902;52.000;5.954;2023-04-15T05:33:49;10.82;;;6.05;;
67930;SDS011;63902;52.000;5.954;2023-04-15T05:34:49;15.20;;;6.97;;
67930;SDS011;63902;52.000;5.954;2023-04-15T05:35:50;10.20;;;6.40;;
67930;SDS011;63902;52.000;5.954;2023-04-15T05:36:50;11.25;;;6.85;;
67930;SDS011;63902;52.000;5.954;2023-04-15T05:37:51;15.52;;;6.80;;
67930;SDS011;63902;52.000;5.954;2023-04-15T05:38:51;11.60;;;6.75;;
67930;SDS011;63902;52.000;5.954;2023-04-15T05:39:52;12.50;;;6.55;;
67930;SDS011;63902;52.000;5.954;2023-04-15T05:40:52;11.68;;;6.85;;
67930;SDS011;63902;52.000;5.954;2023-04-15T05:41:53;11.52;;;6.60;;
67930;SDS011;63902;52.000;5.954;2023-04-15T05:42:53;10.50;;;6.95;;
67930;SDS011;63902;52.000;5.954;2023-04-15T05:43:55;8.65;;;5.95;;
67930;SDS011;63902;52.000;5.954;2023-04-15T05:44:55;13.82;;;6.80;;
67930;SDS011;63902;52.000;5.954;2023-04-15T05:45:56;14.63;;;7.05;;
67930;SDS011;63902;52.000;5.954;2023-04-15T05:46:56;10.95;;;6.75;;
67930;SDS011;63902;52.000;5.954;2023-04-15T05:47:57;11.68;;;6.60;;
67930;SDS011;63902;52.000;5.954;2023-04-15T05:48:57;10.00;;;6.43;;
67930;SDS011;63902;52.000;5.954;2023-04-15T05:49:58;11.82;;;6.93;;
67930;SDS011;63902;52.000;5.954;2023-04-15T05:50:58;11.82;;;6.95;;
67930;SDS011;63902;52.000;5.954;2023-04-15T05:51:59;9.93;;;6.68;;
67930;SDS011;63902;52.000;5.954;2023-04-15T05:52:59;15.73;;;7.10;;
67930;SDS011;63902;52.000;5.954;2023-04-15T05:54:00;11.23;;;6.63;;
67930;SDS011;63902;52.000;5.954;2023-04-15T05:55:00;11.80;;;6.80;;
67930;SDS011;63902;52.000;5.954;2023-04-15T05:56:01;14.15;;;6.75;;
67930;SDS011;63902;52.000;5.954;2023-04-15T05:57:02;11.95;;;6.88;;
67930;SDS011;63902;52.000;5.954;2023-04-15T05:58:02;12.05;;;7.47;;
67930;SDS011;63902;52.000;5.954;2023-04-15T05:59:04;11.15;;;6.70;;
67930;SDS011;63902;52.000;5.954;2023-04-15T06:00:05;11.05;;;6.47;;
67930;SDS011;63902;52.000;5.954;2023-04-15T06:01:06;10.88;;;6.88;;
67930;SDS011;63902;52.000;5.954;2023-04-15T06:02:07;9.73;;;7.28;;
67930;SDS011;63902;52.000;5.954;2023-04-15T06:03:09;10.90;;;7.07;;
67930;SDS011;63902;52.000;5.954;2023-04-15T06:04:09;10.52;;;6.78;;